Terminal Aerodrome Forecast
Issued by NWS

Home | Current Version | Previous Version | Graphics & Text | Print | Product List | Glossary On
Versions: 1 2 3 4 5 6 7 8 9 10 11 12 13 14 15 16 17 18 19 20 21 22 23 24 25 26 27 28 29 30 31 32 33 34 35
000
FTUS43 KLOT 261300 AAA
TAFORD
TAF AMD
KORD 261400Z 2614/2718 21007KT P6SM OVC035
     FM261800 25007KT P6SM SCT040 BKN100
     FM270000 11006KT P6SM BKN100
     FM270500 24004KT 4SM BR FEW015 BKN100
     FM271300 27010KT P6SM SCT150
     FM271700 29013G21KT P6SM BKN045=

USA.gov is the U.S. government's official web portal to all federal, state and local government web resources and services.